This is the latest recevied weather packets stored in our database for station/object OE6JVE-13. If no packets are shown the sender has not sent any weather packets the latest 10 day(s).
| Time | Temp. | Humidity | Pressure | Rain* | Wind** | Luminosity | Snow |
|---|---|---|---|---|---|---|---|
| 1777880179 | 15° C | 68% | 1010.4 hPa | 0 mm | - | - | - |
| 1777879522 | 14.44° C | 70% | 1010.3 hPa | 0 mm | - | - | - |
| 1777878929 | 14.44° C | 72% | 1010.3 hPa | 0 mm | - | - | - |
| 1777878337 | 13.89° C | 73% | 1010.1 hPa | 0 mm | - | - | - |
| 1777877745 | 13.33° C | 76% | 1010.2 hPa | 0 mm | - | - | - |
| 1777877153 | 12.22° C | 81% | 1010.2 hPa | 0 mm | - | - | - |
| 1777876561 | 11.67° C | 85% | 1010.3 hPa | 0 mm | - | - | - |
| 1777875968 | 11.11° C | 90% | 1010.3 hPa | 0 mm | - | - | - |
| 1777875376 | 10° C | 91% | 1010.3 hPa | 0 mm | - | - | - |
| 1777874717 | 9.44° C | 91% | 1010.3 hPa | 0 mm | - | - | - |
| 1777874121 | 8.89° C | 91% | 1010.3 hPa | 0 mm | - | - | - |
| 1777873527 | 8.33° C | 91% | 1010.3 hPa | 0 mm | - | - | - |
| 1777872934 | 8.33° C | 91% | 1010.2 hPa | 0 mm | - | - | - |
| 1777872340 | 7.78° C | 91% | 1010.3 hPa | 0 mm | - | - | - |
| 1777871746 | 7.78° C | 91% | 1010.2 hPa | 0 mm | - | - | - |
| 1777871152 | 7.78° C | 91% | 1010.2 hPa | 0 mm | - | - | - |
| 1777870558 | 7.22° C | 91% | 1010.1 hPa | 0 mm | - | - | - |
| 1777869965 | 7.22° C | 93% | 1010.1 hPa | 0 mm | - | - | - |
| 1777869369 | 6.67° C | 94% | 1010.1 hPa | 0 mm | - | - | - |
| 1777868775 | 6.67° C | 94% | 1010.1 hPa | 0 mm | - | - | - |
| 1777868116 | 6.67° C | 94% | 1010 hPa | 0 mm | - | - | - |
| 1777867522 | 6.67° C | 93% | 1010.1 hPa | 0 mm | - | - | - |
| 1777866928 | 6.67° C | 93% | 1009.9 hPa | 0 mm | - | - | - |
| 1777866334 | 6.67° C | 93% | 1009.9 hPa | 0 mm | - | - | - |
| 1777865741 | 6.67° C | 93% | 1010 hPa | 0 mm | - | - | - |
* Rain latest hour (hover to see other rain measurements)
** Current wind speed in m/s (hover to see current wind gust speed)